Time;durP1;ratioP1;P1;durP2;ratioP2;P2;SDS_P1;SDS_P2;PMS_P1;PMS_P2;Temp;Humidity;BMP_temperature;BMP_pressure;BME280_temperature;BME280_humidity;BME280_pressure;Samples;Min_cycle;Max_cycle;Signal;HPM_P1;HPM_P2
2023/08/12 00:01:41;;;;;;;;;;;;;;;;;;5023345;28;19921;-70
2023/08/12 00:04:06;;;;;;;;;;;;;;;;;;5022501;28;19925;-70
2023/08/12 00:06:32;;;;;;;;;;;;;;;;;;5022987;28;20295;-69
2023/08/12 00:08:58;;;;;;;;;;;;;;;;;;5023008;28;20008;-70
2023/08/12 00:11:24;;;;;;;;;;;;;;;;;;5023116;28;20082;-70
2023/08/12 00:13:50;;;;;;;;;;;;;;;;;;5023393;28;20466;-70
2023/08/12 00:16:16;;;;;;;;;;;;;;;;;;5023632;28;19967;-70
2023/08/12 00:18:42;;;;;;;;;;;;;;;;;;5022348;28;19929;-69
2023/08/12 00:21:09;;;;;;;;;;;;;;;;;;5022772;28;19929;-69
2023/08/12 00:23:35;;;;;;;;;;;;;;;;;;5022619;28;19928;-69
2023/08/12 00:26:01;;;;;;;;;;;;;;;;;;5023243;28;19925;-69
2023/08/12 00:28:27;;;;;;;;;;;;;;;;;;5022838;28;20020;-70
2023/08/12 00:30:53;;;;;;;;;;;;;;;;;;5022213;28;19925;-69
2023/08/12 00:33:19;;;;;;;;;;;;;;;;;;5023815;28;19929;-69
2023/08/12 00:35:45;;;;;;;;;;;;;;;;;;5022373;28;19972;-69
2023/08/12 00:38:11;;;;;;;;;;;;;;;;;;5022947;28;19925;-70
2023/08/12 00:40:37;;;;;;;;;;;;;;;;;;5023163;28;19987;-71
2023/08/12 00:43:03;;;;;;;;;;;;;;;;;;5021705;28;19925;-70
2023/08/12 00:45:29;;;;;;;;;;;;;;;;;;5023035;28;20598;-70
2023/08/12 00:47:55;;;;;;;;;;;;;;;;;;5022994;28;19963;-71
2023/08/12 00:50:21;;;;;;;;;;;;;;;;;;5022536;28;19925;-71
2023/08/12 00:52:46;;;;;;;;;;;;;;;;;;5022733;28;19929;-70
2023/08/12 00:55:12;;;;;;;;;;;;;;;;;;5021886;28;19998;-69
2023/08/12 00:57:38;;;;;;;;;;;;;;;;;;5023047;28;19979;-70
2023/08/12 01:00:04;;;;;;;;;;;;;;;;;;5022592;28;19933;-70
2023/08/12 01:02:30;;;;;;;;;;;;;;;;;;5032693;28;19925;-71
2023/08/12 01:04:56;;;;;;;;;;;;;;;;;;5022096;28;19972;-71
2023/08/12 01:07:22;;;;;;;;;;;;;;;;;;5022304;28;20555;-71
2023/08/12 01:09:48;;;;;;;;;;;;;;;;;;5026273;28;19936;-71
2023/08/12 01:12:14;;;;;;;;;;;;;;;;;;5026727;28;20000;-72
2023/08/12 01:14:40;;;;;;;;;;;;;;;;;;5026083;28;20031;-72
2023/08/12 01:17:06;;;;;;;;;;;;;;;;;;5026111;28;19933;-70
2023/08/12 01:19:32;;;;;;;;;;;;;;;;;;5007642;28;20014;-71
2023/08/12 01:21:57;;;;;;;;;;;;;;;;;;5025852;28;20375;-70
2023/08/12 01:24:23;;;;;;;;;;;;;;;;;;5026346;28;19932;-70
2023/08/12 01:26:49;;;;;;;;;;;;;;;;;;5026674;28;19964;-70
2023/08/12 01:29:15;;;;;;;;;;;;;;;;;;5026094;28;20071;-70
2023/08/12 01:31:41;;;;;;;;;;;;;;;;;;5025997;28;19925;-69
2023/08/12 01:34:07;;;;;;;;;;;;;;;;;;5025028;28;19925;-70
2023/08/12 01:36:33;;;;;;;;;;;;;;;;;;5008080;28;20657;-69
2023/08/12 01:38:59;;;;;;;;;;;;;;;;;;5026014;28;20004;-69
2023/08/12 01:41:25;;;;;;;;;;;;;;;;;;5026112;28;19967;-68
2023/08/12 01:43:51;;;;;;;;;;;;;;;;;;5026651;28;20390;-69
2023/08/12 01:46:16;;;;;;;;;;;;;;;;;;5025247;28;19925;-69
2023/08/12 01:48:42;;;;;;;;;;;;;;;;;;5025794;28;19932;-70
2023/08/12 01:51:08;;;;;;;;;;;;;;;;;;5025113;28;19929;-70
2023/08/12 01:53:34;;;;;;;;;;;;;;;;;;5007332;28;19967;-71
2023/08/12 01:56:00;;;;;;;;;;;;;;;;;;5025604;28;19926;-71
2023/08/12 01:58:26;;;;;;;;;;;;;;;;;;5025151;28;19929;-71
2023/08/12 02:00:52;;;;;;;;;;;;;;;;;;5025630;28;19933;-72
2023/08/12 02:03:18;;;;;;;;;;;;;;;;;;5025924;28;20375;-71
2023/08/12 02:05:44;;;;;;;;;;;;;;;;;;5024358;28;19925;-71
2023/08/12 02:08:10;;;;;;;;;;;;;;;;;;5025634;28;19925;-71
2023/08/12 02:10:36;;;;;;;;;;;;;;;;;;5024633;28;19929;-71
2023/08/12 02:13:02;;;;;;;;;;;;;;;;;;5025962;28;19930;-70
2023/08/12 02:15:28;;;;;;;;;;;;;;;;;;5025156;28;19972;-72
2023/08/12 02:17:54;;;;;;;;;;;;;;;;;;5025188;28;19968;-71
2023/08/12 02:20:20;;;;;;;;;;;;;;;;;;5023685;28;19957;-72
2023/08/12 02:22:46;;;;;;;;;;;;;;;;;;5024306;28;19925;-72
2023/08/12 02:25:12;;;;;;;;;;;;;;;;;;5024858;28;19929;-69
2023/08/12 02:27:38;;;;;;;;;;;;;;;;;;5025356;28;19948;-71
2023/08/12 02:30:05;;;;;;;;;;;;;;;;;;5024990;28;20007;-72
2023/08/12 02:32:30;;;;;;;;;;;;;;;;;;5025054;28;19947;-71
2023/08/12 02:34:56;;;;;;;;;;;;;;;;;;5023562;28;20378;-71
2023/08/12 02:37:22;;;;;;;;;;;;;;;;;;5025060;28;20402;-69
2023/08/12 02:39:48;;;;;;;;;;;;;;;;;;5025337;28;20016;-70
2023/08/12 02:42:14;;;;;;;;;;;;;;;;;;5024888;28;20012;-70
2023/08/12 02:44:40;;;;;;;;;;;;;;;;;;5024395;28;20012;-70
2023/08/12 02:47:06;;;;;;;;;;;;;;;;;;5024296;28;20004;-70
2023/08/12 02:49:32;;;;;;;;;;;;;;;;;;5006662;28;20311;-69
2023/08/12 02:51:58;;;;;;;;;;;;;;;;;;5024565;28;20379;-71
2023/08/12 02:54:24;;;;;;;;;;;;;;;;;;5024755;28;19925;-71
2023/08/12 02:56:50;;;;;;;;;;;;;;;;;;5024714;28;20391;-71
2023/08/12 02:59:15;;;;;;;;;;;;;;;;;;5024322;28;19971;-70
2023/08/12 03:01:41;;;;;;;;;;;;;;;;;;5024097;28;20028;-71
2023/08/12 03:04:07;;;;;;;;;;;;;;;;;;5023476;28;20027;-71
2023/08/12 03:06:33;;;;;;;;;;;;;;;;;;5024786;28;19933;-71
2023/08/12 03:08:59;;;;;;;;;;;;;;;;;;5024525;28;19951;-71
2023/08/12 03:11:25;;;;;;;;;;;;;;;;;;5024433;28;19956;-71
2023/08/12 03:13:51;;;;;;;;;;;;;;;;;;5023589;28;20418;-71
2023/08/12 03:16:17;;;;;;;;;;;;;;;;;;5024699;28;19932;-71
2023/08/12 03:18:43;;;;;;;;;;;;;;;;;;5022893;28;19929;-70
2023/08/12 03:21:09;;;;;;;;;;;;;;;;;;5024398;28;19929;-73
2023/08/12 03:23:35;;;;;;;;;;;;;;;;;;5024192;28;19984;-71
2023/08/12 03:26:00;;;;;;;;;;;;;;;;;;5023347;28;20604;-71
2023/08/12 03:28:26;;;;;;;;;;;;;;;;;;5023526;28;19984;-71
2023/08/12 03:30:52;;;;;;;;;;;;;;;;;;5023141;28;20397;-71
2023/08/12 03:33:18;;;;;;;;;;;;;;;;;;5024179;28;19932;-71
2023/08/12 03:35:44;;;;;;;;;;;;;;;;;;5022960;28;19932;-70
2023/08/12 03:38:10;;;;;;;;;;;;;;;;;;5022912;28;19925;-71
2023/08/12 03:40:36;;;;;;;;;;;;;;;;;;5024118;28;19944;-71
2023/08/12 03:43:02;;;;;;;;;;;;;;;;;;5023526;28;20391;-70
2023/08/12 03:45:28;;;;;;;;;;;;;;;;;;5024161;28;19936;-72
2023/08/12 03:47:54;;;;;;;;;;;;;;;;;;5023176;28;20331;-72
2023/08/12 03:50:19;;;;;;;;;;;;;;;;;;5022550;28;19925;-72
2023/08/12 03:52:45;;;;;;;;;;;;;;;;;;5023917;28;19929;-70
2023/08/12 03:55:11;;;;;;;;;;;;;;;;;;5023239;28;20472;-71
2023/08/12 03:57:37;;;;;;;;;;;;;;;;;;5023262;28;20276;-72
2023/08/12 04:00:04;;;;;;;;;;;;;;;;;;5023774;28;19929;-73
2023/08/12 04:02:29;;;;;;;;;;;;;;;;;;5004351;28;19925;-71
2023/08/12 04:04:55;;;;;;;;;;;;;;;;;;5022683;28;19929;-69
2023/08/12 04:07:22;;;;;;;;;;;;;;;;;;5023581;28;19949;-70
2023/08/12 04:09:48;;;;;;;;;;;;;;;;;;5023418;28;20051;-70
2023/08/12 04:12:14;;;;;;;;;;;;;;;;;;5023468;28;19944;-70
2023/08/12 04:14:40;;;;;;;;;;;;;;;;;;5022457;28;19925;-70
2023/08/12 04:17:06;;;;;;;;;;;;;;;;;;5023007;28;19925;-69
2023/08/12 04:19:32;;;;;;;;;;;;;;;;;;5023071;28;20305;-69
2023/08/12 04:21:58;;;;;;;;;;;;;;;;;;5022834;28;20391;-69
2023/08/12 04:24:24;;;;;;;;;;;;;;;;;;5022861;28;19979;-69
2023/08/12 04:26:50;;;;;;;;;;;;;;;;;;5022815;28;19925;-70
2023/08/12 04:29:16;;;;;;;;;;;;;;;;;;5023199;28;20395;-70
2023/08/12 04:31:42;;;;;;;;;;;;;;;;;;5022837;28;20148;-70
2023/08/12 04:34:08;;;;;;;;;;;;;;;;;;5022711;28;19925;-70
2023/08/12 04:36:34;;;;;;;;;;;;;;;;;;5022874;28;19926;-71
2023/08/12 04:38:59;;;;;;;;;;;;;;;;;;5022744;28;19948;-70
2023/08/12 04:41:25;;;;;;;;;;;;;;;;;;5022904;28;20383;-70
2023/08/12 04:43:51;;;;;;;;;;;;;;;;;;5024717;28;19932;-70
2023/08/12 04:46:17;;;;;;;;;;;;;;;;;;5027158;28;19925;-69
2023/08/12 04:48:43;;;;;;;;;;;;;;;;;;5026363;28;19925;-70
2023/08/12 04:51:10;;;;;;;;;;;;;;;;;;5027188;28;19932;-70
2023/08/12 04:53:35;;;;;;;;;;;;;;;;;;5026020;28;19929;-70
2023/08/12 04:56:02;;;;;;;;;;;;;;;;;;5026919;28;19925;-70
2023/08/12 04:58:27;;;;;;;;;;;;;;;;;;5026475;28;19978;-70
2023/08/12 05:00:53;;;;;;;;;;;;;;;;;;5026337;28;19924;-70
2023/08/12 05:03:19;;;;;;;;;;;;;;;;;;5026096;28;20439;-70
2023/08/12 05:05:45;;;;;;;;;;;;;;;;;;5025711;28;20394;-70
2023/08/12 05:08:11;;;;;;;;;;;;;;;;;;5027066;28;20282;-71
2023/08/12 05:10:37;;;;;;;;;;;;;;;;;;5026557;28;19925;-70
2023/08/12 05:13:03;;;;;;;;;;;;;;;;;;5026615;28;20291;-69
2023/08/12 05:15:29;;;;;;;;;;;;;;;;;;5025806;28;19925;-69
2023/08/12 05:17:55;;;;;;;;;;;;;;;;;;5025738;28;19925;-69
2023/08/12 05:20:21;;;;;;;;;;;;;;;;;;5026310;28;19925;-71
2023/08/12 05:22:47;;;;;;;;;;;;;;;;;;5026320;28;20301;-72
2023/08/12 05:25:13;;;;;;;;;;;;;;;;;;5026444;28;19929;-70
2023/08/12 05:27:39;;;;;;;;;;;;;;;;;;5026265;28;19932;-72
2023/08/12 05:30:05;;;;;;;;;;;;;;;;;;5025393;28;19925;-71
2023/08/12 05:32:31;;;;;;;;;;;;;;;;;;5026203;28;19925;-72
2023/08/12 05:34:57;;;;;;;;;;;;;;;;;;5025087;28;20578;-74
2023/08/12 05:37:23;;;;;;;;;;;;;;;;;;5025857;28;19925;-72
2023/08/12 05:39:49;;;;;;;;;;;;;;;;;;5026119;28;20016;-71
2023/08/12 05:42:15;;;;;;;;;;;;;;;;;;5025040;28;20016;-73
2023/08/12 05:44:41;;;;;;;;;;;;;;;;;;5026061;28;19925;-71
2023/08/12 05:47:06;;;;;;;;;;;;;;;;;;5026511;28;19925;-71
2023/08/12 05:49:32;;;;;;;;;;;;;;;;;;5025097;28;19937;-71
2023/08/12 05:51:58;;;;;;;;;;;;;;;;;;5028712;28;20371;-71
2023/08/12 05:54:24;;;;;;;;;;;;;;;;;;5024357;28;19925;-71
2023/08/12 05:56:50;;;;;;;;;;;;;;;;;;5026056;28;19925;-71
2023/08/12 05:59:16;;;;;;;;;;;;;;;;;;5025285;28;19987;-71
2023/08/12 06:01:42;;;;;;;;;;;;;;;;;;5026040;28;20411;-68
2023/08/12 06:04:08;;;;;;;;;;;;;;;;;;5024721;28;19931;-72
2023/08/12 06:06:34;;;;;;;;;;;;;;;;;;5017030;28;19991;-71
2023/08/12 06:09:00;;;;;;;;;;;;;;;;;;5017286;28;19925;-72
2023/08/12 06:11:28;;;;;;;;;;;;;;;;;;5018204;28;19928;-71
2023/08/12 06:13:54;;;;;;;;;;;;;;;;;;5011923;28;19937;-71
2023/08/12 06:16:20;;;;;;;;;;;;;;;;;;5025588;28;19925;-71
2023/08/12 06:18:47;;;;;;;;;;;;;;;;;;5015157;28;19940;-71
2023/08/12 06:21:15;;;;;;;;;;;;;;;;;;5014673;28;20215;-71
2023/08/12 06:23:41;;;;;;;;;;;;;;;;;;5013391;28;20375;-72
2023/08/12 06:26:07;;;;;;;;;;;;;;;;;;5029276;28;19968;-70
2023/08/12 06:28:33;;;;;;;;;;;;;;;;;;5004585;28;19996;-72
2023/08/12 06:30:59;;;;;;;;;;;;;;;;;;5013926;28;19925;-70
2023/08/12 06:33:25;;;;;;;;;;;;;;;;;;5003461;28;19932;-72
2023/08/12 06:35:51;;;;;;;;;;;;;;;;;;5011561;28;19929;-71
2023/08/12 06:38:17;;;;;;;;;;;;;;;;;;5021640;28;19933;-73
2023/08/12 06:40:43;;;;;;;;;;;;;;;;;;5011243;28;20012;-70
2023/08/12 06:43:10;;;;;;;;;;;;;;;;;;5022087;28;19925;-71
2023/08/12 06:45:36;;;;;;;;;;;;;;;;;;5020375;28;19976;-72
2023/08/12 06:48:02;;;;;;;;;;;;;;;;;;5016569;28;20022;-72
2023/08/12 06:50:28;;;;;;;;;;;;;;;;;;5020739;28;19932;-72
2023/08/12 06:52:54;;;;;;;;;;;;;;;;;;5014107;28;19924;-73
2023/08/12 06:55:20;;;;;;;;;;;;;;;;;;5020571;28;19931;-72
2023/08/12 06:57:48;;;;;;;;;;;;;;;;;;5011593;28;19925;-72
2023/08/12 07:00:16;;;;;;;;;;;;;;;;;;5011012;28;19977;-72
2023/08/12 07:02:43;;;;;;;;;;;;;;;;;;4991606;28;19929;-72
2023/08/12 07:05:09;;;;;;;;;;;;;;;;;;5007539;28;19935;-72
2023/08/12 07:07:34;;;;;;;;;;;;;;;;;;5005957;28;19945;-72
2023/08/12 07:10:00;;;;;;;;;;;;;;;;;;5009215;28;19976;-73
2023/08/12 07:12:27;;;;;;;;;;;;;;;;;;5024580;28;19964;-71
2023/08/12 07:14:53;;;;;;;;;;;;;;;;;;5019244;28;20705;-70
2023/08/12 07:17:19;;;;;;;;;;;;;;;;;;5024676;28;20401;-70
2023/08/12 07:19:45;;;;;;;;;;;;;;;;;;5020107;28;19932;-71
2023/08/12 07:22:11;;;;;;;;;;;;;;;;;;5013908;28;19925;-71
2023/08/12 07:24:37;;;;;;;;;;;;;;;;;;5024125;28;20007;-72
2023/08/12 07:27:03;;;;;;;;;;;;;;;;;;5003557;28;20030;-69
2023/08/12 07:29:29;;;;;;;;;;;;;;;;;;5022119;28;19928;-71
2023/08/12 07:31:55;;;;;;;;;;;;;;;;;;5023336;28;20005;-72
2023/08/12 07:34:21;;;;;;;;;;;;;;;;;;5023954;28;19983;-70
2023/08/12 07:36:47;;;;;;;;;;;;;;;;;;5005956;28;20730;-70
2023/08/12 07:39:13;;;;;;;;;;;;;;;;;;5020843;28;19936;-70
2023/08/12 07:41:39;;;;;;;;;;;;;;;;;;5023798;28;19921;-69
2023/08/12 07:44:05;;;;;;;;;;;;;;;;;;5021043;28;20023;-70
2023/08/12 07:46:31;;;;;;;;;;;;;;;;;;5000019;28;19925;-71
2023/08/12 07:48:57;;;;;;;;;;;;;;;;;;5014174;28;19940;-71
2023/08/12 07:51:23;;;;;;;;;;;;;;;;;;5027019;28;19929;-70
2023/08/12 07:53:49;;;;;;;;;;;;;;;;;;5020285;28;19944;-71
2023/08/12 07:56:15;;;;;;;;;;;;;;;;;;5021930;28;20387;-72
2023/08/12 07:58:40;;;;;;;;;;;;;;;;;;5022211;28;19932;-71
2023/08/12 08:01:08;;;;;;;;;;;;;;;;;;5022230;28;19933;-71
2023/08/12 08:03:34;;;;;;;;;;;;;;;;;;5021703;28;19925;-69
2023/08/12 08:06:00;;;;;;;;;;;;;;;;;;5003158;28;20470;-72
2023/08/12 08:08:26;;;;;;;;;;;;;;;;;;5023709;28;20031;-72
2023/08/12 08:10:52;;;;;;;;;;;;;;;;;;5014699;28;19936;-74
2023/08/12 08:13:18;;;;;;;;;;;;;;;;;;5015476;28;20355;-73
2023/08/12 08:15:44;;;;;;;;;;;;;;;;;;5009890;28;19925;-72
2023/08/12 08:18:10;;;;;;;;;;;;;;;;;;5015844;28;19929;-72
2023/08/12 08:20:36;;;;;;;;;;;;;;;;;;5020465;28;20022;-72
2023/08/12 08:23:02;;;;;;;;;;;;;;;;;;5020743;28;19929;-73
2023/08/12 08:25:28;;;;;;;;;;;;;;;;;;5021200;28;19936;-73
2023/08/12 08:27:54;;;;;;;;;;;;;;;;;;5020791;28;19994;-72
2023/08/12 08:30:20;;;;;;;;;;;;;;;;;;5019602;28;20387;-72
2023/08/12 08:32:46;;;;;;;;;;;;;;;;;;5018571;28;19929;-72
2023/08/12 08:35:12;;;;;;;;;;;;;;;;;;5020676;28;19929;-73
2023/08/12 08:37:38;;;;;;;;;;;;;;;;;;5020594;28;19929;-71
2023/08/12 08:40:04;;;;;;;;;;;;;;;;;;5020579;28;20383;-71
2023/08/12 08:42:30;;;;;;;;;;;;;;;;;;5020763;28;19936;-71
2023/08/12 08:44:56;;;;;;;;;;;;;;;;;;5013214;28;19929;-72
2023/08/12 08:47:21;;;;;;;;;;;;;;;;;;5014293;28;19936;-71
2023/08/12 08:49:47;;;;;;;;;;;;;;;;;;5015771;28;19925;-73
2023/08/12 08:52:13;;;;;;;;;;;;;;;;;;5020382;28;19925;-71
2023/08/12 08:54:39;;;;;;;;;;;;;;;;;;5014294;28;20330;-73
2023/08/12 08:57:05;;;;;;;;;;;;;;;;;;5001464;28;20008;-67
2023/08/12 08:59:31;;;;;;;;;;;;;;;;;;5016511;28;19990;-71
2023/08/12 09:01:57;;;;;;;;;;;;;;;;;;5020584;28;19979;-71
2023/08/12 09:04:23;;;;;;;;;;;;;;;;;;5016893;28;19929;-71
2023/08/12 09:06:49;;;;;;;;;;;;;;;;;;5017045;28;20788;-71
2023/08/12 09:09:15;;;;;;;;;;;;;;;;;;5020079;28;19980;-71
2023/08/12 09:11:41;;;;;;;;;;;;;;;;;;5020443;28;19925;-70
2023/08/12 09:14:07;;;;;;;;;;;;;;;;;;5018562;28;19933;-70
2023/08/12 09:16:33;;;;;;;;;;;;;;;;;;5021150;28;19925;-71
2023/08/12 09:18:59;;;;;;;;;;;;;;;;;;5000312;28;19929;-70
2023/08/12 09:21:25;;;;;;;;;;;;;;;;;;5020508;28;19940;-70
2023/08/12 09:23:51;;;;;;;;;;;;;;;;;;5020765;28;20465;-71
2023/08/12 09:26:17;;;;;;;;;;;;;;;;;;5021228;28;19929;-71
2023/08/12 09:28:43;;;;;;;;;;;;;;;;;;5020342;28;19940;-70
2023/08/12 09:31:09;;;;;;;;;;;;;;;;;;5024256;28;19929;-70
2023/08/12 09:33:35;;;;;;;;;;;;;;;;;;5022309;28;19983;-70
2023/08/12 09:36:01;;;;;;;;;;;;;;;;;;5022681;28;19933;-70
2023/08/12 09:38:27;;;;;;;;;;;;;;;;;;5023486;28;19936;-71
2023/08/12 09:40:54;;;;;;;;;;;;;;;;;;5023284;28;19929;-71
2023/08/12 09:43:20;;;;;;;;;;;;;;;;;;5024056;28;19929;-69
2023/08/12 09:45:46;;;;;;;;;;;;;;;;;;5023935;28;19929;-69
2023/08/12 09:48:12;;;;;;;;;;;;;;;;;;5022692;28;19929;-69
2023/08/12 09:50:38;;;;;;;;;;;;;;;;;;5023066;28;19973;-70
2023/08/12 09:53:04;;;;;;;;;;;;;;;;;;5023609;28;20397;-69
2023/08/12 09:55:29;;;;;;;;;;;;;;;;;;5023439;28;20098;-70
2023/08/12 09:57:56;;;;;;;;;;;;;;;;;;5023413;28;19928;-69
2023/08/12 10:00:23;;;;;;;;;;;;;;;;;;5023444;28;19936;-72
2023/08/12 10:02:49;;;;;;;;;;;;;;;;;;5020813;28;20029;-71
2023/08/12 10:05:17;;;;;;;;;;;;;;;;;;5020372;28;19979;-72
2023/08/12 10:07:45;;;;;;;;;;;;;;;;;;5019118;28;19936;-71
2023/08/12 10:10:16;;;;;;;;;;;;;;;;;;5023609;28;19925;-72
2023/08/12 10:12:45;;;;;;;;;;;;;;;;;;5023430;28;20036;-72
2023/08/12 10:15:15;;;;;;;;;;;;;;;;;;5021724;28;20272;-73
2023/08/12 10:17:43;;;;;;;;;;;;;;;;;;5020633;28;19984;-72
2023/08/12 10:20:09;;;;;;;;;;;;;;;;;;5022386;28;20044;-72
2023/08/12 10:22:35;;;;;;;;;;;;;;;;;;5023338;28;20332;-72
2023/08/12 10:25:02;;;;;;;;;;;;;;;;;;5021216;28;19929;-72
2023/08/12 10:27:28;;;;;;;;;;;;;;;;;;5014485;28;20036;-72
2023/08/12 10:29:54;;;;;;;;;;;;;;;;;;5012442;28;19992;-72
2023/08/12 10:32:20;;;;;;;;;;;;;;;;;;5002915;28;19965;-72
2023/08/12 10:34:46;;;;;;;;;;;;;;;;;;5001726;28;19929;-72
2023/08/12 10:37:12;;;;;;;;;;;;;;;;;;5003188;28;19929;-71
2023/08/12 10:39:38;;;;;;;;;;;;;;;;;;5014999;28;19936;-71
2023/08/12 10:42:04;;;;;;;;;;;;;;;;;;5021001;28;20023;-71
2023/08/12 10:44:30;;;;;;;;;;;;;;;;;;5020954;28;20032;-72
2023/08/12 10:46:56;;;;;;;;;;;;;;;;;;5020374;28;19929;-71
2023/08/12 10:49:22;;;;;;;;;;;;;;;;;;5020428;28;19925;-66
2023/08/12 10:51:48;;;;;;;;;;;;;;;;;;5021976;28;20318;-73
2023/08/12 10:54:15;;;;;;;;;;;;;;;;;;5020767;28;19929;-72
2023/08/12 10:56:41;;;;;;;;;;;;;;;;;;5006509;28;20604;-71
2023/08/12 10:59:07;;;;;;;;;;;;;;;;;;5009704;28;19933;-72
2023/08/12 11:01:33;;;;;;;;;;;;;;;;;;5006447;28;19995;-72
2023/08/12 11:03:59;;;;;;;;;;;;;;;;;;5019673;28;19933;-73
2023/08/12 11:06:25;;;;;;;;;;;;;;;;;;5016627;28;19925;-71
2023/08/12 11:08:51;;;;;;;;;;;;;;;;;;5018520;28;19927;-70
2023/08/12 11:11:17;;;;;;;;;;;;;;;;;;4999832;28;19926;-73
2023/08/12 11:13:43;;;;;;;;;;;;;;;;;;5016964;28;20043;-69
2023/08/12 11:16:09;;;;;;;;;;;;;;;;;;5012018;28;20323;-71
2023/08/12 11:18:35;;;;;;;;;;;;;;;;;;5010606;28;19929;-70
2023/08/12 11:21:01;;;;;;;;;;;;;;;;;;5011160;28;20465;-70
2023/08/12 11:23:26;;;;;;;;;;;;;;;;;;4998525;28;19929;-70
2023/08/12 11:25:52;;;;;;;;;;;;;;;;;;5018742;28;19929;-69
2023/08/12 11:28:21;;;;;;;;;;;;;;;;;;4990314;28;19932;-71
2023/08/12 11:30:47;;;;;;;;;;;;;;;;;;5013545;28;19933;-71
2023/08/12 11:33:13;;;;;;;;;;;;;;;;;;5013810;28;19952;-71
2023/08/12 11:35:39;;;;;;;;;;;;;;;;;;5010551;28;19929;-71
2023/08/12 11:38:05;;;;;;;;;;;;;;;;;;5006915;28;19925;-70
2023/08/12 11:40:31;;;;;;;;;;;;;;;;;;5011777;28;19929;-71
2023/08/12 11:42:57;;;;;;;;;;;;;;;;;;5005710;28;19929;-71
2023/08/12 11:45:23;;;;;;;;;;;;;;;;;;5003863;28;19932;-72
2023/08/12 11:47:55;;;;;;;;;;;;;;;;;;5003447;28;19926;-71
2023/08/12 11:50:21;;;;;;;;;;;;;;;;;;5005228;28;20024;-71
2023/08/12 11:52:47;;;;;;;;;;;;;;;;;;5001589;28;20235;-71
2023/08/12 11:55:12;;;;;;;;;;;;;;;;;;5020467;28;19936;-70
2023/08/12 11:57:38;;;;;;;;;;;;;;;;;;5020774;28;19978;-71
2023/08/12 12:00:08;;;;;;;;;;;;;;;;;;5000187;28;19970;-70
2023/08/12 12:02:34;;;;;;;;;;;;;;;;;;5016157;28;20562;-70
2023/08/12 12:05:00;;;;;;;;;;;;;;;;;;5016423;28;19936;-71
2023/08/12 12:07:27;;;;;;;;;;;;;;;;;;5016369;28;20622;-71
2023/08/12 12:09:53;;;;;;;;;;;;;;;;;;5019717;28;19936;-71
2023/08/12 12:12:19;;;;;;;;;;;;;;;;;;5015401;28;19929;-71
2023/08/12 12:14:45;;;;;;;;;;;;;;;;;;5013300;28;19933;-71
2023/08/12 12:17:12;;;;;;;;;;;;;;;;;;5006616;28;19972;-71
2023/08/12 12:19:38;;;;;;;;;;;;;;;;;;5006070;28;19929;-70
2023/08/12 12:22:05;;;;;;;;;;;;;;;;;;5015537;28;19926;-70
2023/08/12 12:24:31;;;;;;;;;;;;;;;;;;5014800;28;19936;-70
2023/08/12 12:26:57;;;;;;;;;;;;;;;;;;5003670;28;19930;-72
2023/08/12 12:29:23;;;;;;;;;;;;;;;;;;5012493;28;20012;-70
2023/08/12 12:31:48;;;;;;;;;;;;;;;;;;5019002;28;20008;-70
2023/08/12 12:34:14;;;;;;;;;;;;;;;;;;5020216;28;19936;-71
2023/08/12 12:36:40;;;;;;;;;;;;;;;;;;5019450;28;20019;-71
2023/08/12 12:39:06;;;;;;;;;;;;;;;;;;5020532;28;19925;-71
2023/08/12 12:41:32;;;;;;;;;;;;;;;;;;5011692;28;20051;-68
2023/08/12 12:43:58;;;;;;;;;;;;;;;;;;5019902;28;19975;-71
2023/08/12 12:46:24;;;;;;;;;;;;;;;;;;5019414;28;19972;-71
2023/08/12 12:48:50;;;;;;;;;;;;;;;;;;5011704;28;19932;-69
2023/08/12 12:51:16;;;;;;;;;;;;;;;;;;5016539;28;19936;-69
2023/08/12 12:53:42;;;;;;;;;;;;;;;;;;5013497;28;20039;-70
2023/08/12 12:56:08;;;;;;;;;;;;;;;;;;5018067;28;20461;-69
2023/08/12 12:58:34;;;;;;;;;;;;;;;;;;5020299;28;19929;-70
2023/08/12 13:01:00;;;;;;;;;;;;;;;;;;5017520;28;19932;-70
2023/08/12 13:03:26;;;;;;;;;;;;;;;;;;5016312;28;19929;-69
2023/08/12 13:05:52;;;;;;;;;;;;;;;;;;5015546;28;20402;-70
2023/08/12 13:08:18;;;;;;;;;;;;;;;;;;5018490;28;19929;-69
2023/08/12 13:10:44;;;;;;;;;;;;;;;;;;5013745;28;19925;-69
2023/08/12 13:13:09;;;;;;;;;;;;;;;;;;5021312;28;19983;-70
2023/08/12 13:15:36;;;;;;;;;;;;;;;;;;5015667;28;19948;-69
2023/08/12 13:18:02;;;;;;;;;;;;;;;;;;5013157;28;20024;-70
2023/08/12 13:20:28;;;;;;;;;;;;;;;;;;5014625;28;19929;-70
2023/08/12 13:22:54;;;;;;;;;;;;;;;;;;5020782;28;19924;-70
2023/08/12 13:25:21;;;;;;;;;;;;;;;;;;5015192;28;19979;-70
2023/08/12 13:27:47;;;;;;;;;;;;;;;;;;5016243;28;19976;-70
2023/08/12 13:30:13;;;;;;;;;;;;;;;;;;5016364;28;19929;-69
2023/08/12 13:32:39;;;;;;;;;;;;;;;;;;4990852;28;19933;-70
2023/08/12 13:35:05;;;;;;;;;;;;;;;;;;5016055;28;19976;-69
2023/08/12 13:37:31;;;;;;;;;;;;;;;;;;5017372;28;19929;-70
2023/08/12 13:39:57;;;;;;;;;;;;;;;;;;5004041;28;20236;-70
2023/08/12 13:42:22;;;;;;;;;;;;;;;;;;4999716;28;19929;-70
2023/08/12 13:44:48;;;;;;;;;;;;;;;;;;5016715;28;20016;-70
2023/08/12 13:47:14;;;;;;;;;;;;;;;;;;5019349;28;20012;-70
2023/08/12 13:49:40;;;;;;;;;;;;;;;;;;5023653;28;19933;-70
2023/08/12 13:52:06;;;;;;;;;;;;;;;;;;5019969;28;20047;-68
2023/08/12 13:54:32;;;;;;;;;;;;;;;;;;5023742;28;20582;-69
2023/08/12 13:56:59;;;;;;;;;;;;;;;;;;5021702;28;20408;-69
2023/08/12 13:59:26;;;;;;;;;;;;;;;;;;5020456;28;19929;-68
2023/08/12 14:01:52;;;;;;;;;;;;;;;;;;5016120;28;19937;-67
2023/08/12 14:04:18;;;;;;;;;;;;;;;;;;5018217;28;20003;-68
2023/08/12 14:06:43;;;;;;;;;;;;;;;;;;5018080;28;20414;-64
2023/08/12 14:09:12;;;;;;;;;;;;;;;;;;5018537;28;19929;-64
2023/08/12 14:11:37;;;;;;;;;;;;;;;;;;5021726;28;19982;-69
2023/08/12 14:14:03;;;;;;;;;;;;;;;;;;5014925;28;19925;-68
2023/08/12 14:16:29;;;;;;;;;;;;;;;;;;5010224;28;19929;-68
2023/08/12 14:18:55;;;;;;;;;;;;;;;;;;5018211;28;19932;-68
2023/08/12 14:21:21;;;;;;;;;;;;;;;;;;5007847;28;19925;-69
2023/08/12 14:23:47;;;;;;;;;;;;;;;;;;5017414;28;19941;-68
2023/08/12 14:26:13;;;;;;;;;;;;;;;;;;5013283;28;19929;-68
2023/08/12 14:28:39;;;;;;;;;;;;;;;;;;4996571;28;19925;-68
2023/08/12 14:31:05;;;;;;;;;;;;;;;;;;5014148;28;20080;-68
2023/08/12 14:33:31;;;;;;;;;;;;;;;;;;5012256;28;20286;-68
2023/08/12 14:35:57;;;;;;;;;;;;;;;;;;5005783;28;19928;-68
2023/08/12 14:38:23;;;;;;;;;;;;;;;;;;5006361;28;19999;-68
2023/08/12 14:40:48;;;;;;;;;;;;;;;;;;5004748;28;19979;-67
2023/08/12 14:43:14;;;;;;;;;;;;;;;;;;5002523;28;20375;-67
2023/08/12 14:45:40;;;;;;;;;;;;;;;;;;5001620;28;20010;-69
2023/08/12 14:48:06;;;;;;;;;;;;;;;;;;5020827;28;19929;-68
2023/08/12 14:50:32;;;;;;;;;;;;;;;;;;5019542;28;19929;-67
2023/08/12 14:52:58;;;;;;;;;;;;;;;;;;5019882;28;19928;-68
2023/08/12 14:55:24;;;;;;;;;;;;;;;;;;5020081;28;19929;-68
2023/08/12 14:57:50;;;;;;;;;;;;;;;;;;5018937;28;20524;-68
2023/08/12 15:00:16;;;;;;;;;;;;;;;;;;5019218;28;19964;-68
2023/08/12 15:02:42;;;;;;;;;;;;;;;;;;5013400;28;19929;-68
2023/08/12 15:05:08;;;;;;;;;;;;;;;;;;5016284;28;19929;-68
2023/08/12 15:07:34;;;;;;;;;;;;;;;;;;5010322;28;19933;-68
2023/08/12 15:10:00;;;;;;;;;;;;;;;;;;5014380;28;20611;-69
2023/08/12 15:12:27;;;;;;;;;;;;;;;;;;5008252;28;20071;-69
2023/08/12 15:14:53;;;;;;;;;;;;;;;;;;5010469;28;19929;-68
2023/08/12 15:17:19;;;;;;;;;;;;;;;;;;4999376;28;19931;-68
2023/08/12 15:19:44;;;;;;;;;;;;;;;;;;5006552;28;19930;-68
2023/08/12 15:22:10;;;;;;;;;;;;;;;;;;5009968;28;20086;-68
2023/08/12 15:24:37;;;;;;;;;;;;;;;;;;5008493;28;19929;-68
2023/08/12 15:27:03;;;;;;;;;;;;;;;;;;5020183;28;19937;-68
2023/08/12 15:29:29;;;;;;;;;;;;;;;;;;5019316;28;19932;-68
2023/08/12 15:31:58;;;;;;;;;;;;;;;;;;5016019;28;19929;-67
2023/08/12 15:34:23;;;;;;;;;;;;;;;;;;5020425;28;19944;-68
2023/08/12 15:36:49;;;;;;;;;;;;;;;;;;5014034;28;19922;-68
2023/08/12 15:39:15;;;;;;;;;;;;;;;;;;4998151;28;19929;-68
2023/08/12 15:41:42;;;;;;;;;;;;;;;;;;4997714;28;19933;-68
2023/08/12 15:44:08;;;;;;;;;;;;;;;;;;5020793;28;19925;-69
2023/08/12 15:46:34;;;;;;;;;;;;;;;;;;5013549;28;19980;-68
2023/08/12 15:49:00;;;;;;;;;;;;;;;;;;5013426;28;19995;-68
2023/08/12 15:51:26;;;;;;;;;;;;;;;;;;5011321;28;20031;-69
2023/08/12 15:53:52;;;;;;;;;;;;;;;;;;5020447;28;20036;-68
2023/08/12 15:56:18;;;;;;;;;;;;;;;;;;5019728;28;20004;-68
2023/08/12 15:58:44;;;;;;;;;;;;;;;;;;5018880;28;20020;-68
2023/08/12 16:01:10;;;;;;;;;;;;;;;;;;5017754;28;19937;-69
2023/08/12 16:03:36;;;;;;;;;;;;;;;;;;5015432;28;19940;-69
2023/08/12 16:06:02;;;;;;;;;;;;;;;;;;5014986;28;19929;-70
2023/08/12 16:08:28;;;;;;;;;;;;;;;;;;5020674;28;19929;-69
2023/08/12 16:10:54;;;;;;;;;;;;;;;;;;5007529;28;19936;-69
2023/08/12 16:13:21;;;;;;;;;;;;;;;;;;5011489;28;19925;-69
2023/08/12 16:15:47;;;;;;;;;;;;;;;;;;5011058;28;19936;-69
2023/08/12 16:18:13;;;;;;;;;;;;;;;;;;5009061;28;19929;-68
2023/08/12 16:20:38;;;;;;;;;;;;;;;;;;5013700;28;19948;-69
2023/08/12 16:23:04;;;;;;;;;;;;;;;;;;5015336;28;19932;-69
2023/08/12 16:25:30;;;;;;;;;;;;;;;;;;5007861;28;19972;-70
2023/08/12 16:27:56;;;;;;;;;;;;;;;;;;5007476;28;20017;-72
2023/08/12 16:30:22;;;;;;;;;;;;;;;;;;5020103;28;20465;-70
2023/08/12 16:32:48;;;;;;;;;;;;;;;;;;5019979;28;19991;-71
2023/08/12 16:35:14;;;;;;;;;;;;;;;;;;5018808;28;19929;-70
2023/08/12 16:37:40;;;;;;;;;;;;;;;;;;5017892;28;20030;-69